createdAt,value
2019-04-21T00:01:44.060Z,11.30
2019-04-21T00:04:24.740Z,10.80
2019-04-21T00:07:03.059Z,10.40
2019-04-21T00:09:41.111Z,10.10
2019-04-21T00:12:07.580Z,9.90
2019-04-21T00:14:30.257Z,9.80
2019-04-21T00:16:58.373Z,10.00
2019-04-21T00:19:33.240Z,10.20
2019-04-21T00:22:14.927Z,10.40
2019-04-21T00:24:46.137Z,10.60
2019-04-21T00:27:24.561Z,10.90
2019-04-21T00:29:58.507Z,11.10
2019-04-21T00:32:25.668Z,11.20
2019-04-21T00:34:53.439Z,11.30
2019-04-21T00:37:25.464Z,11.30
2019-04-21T00:40:12.894Z,11.40
2019-04-21T00:42:37.629Z,11.40
2019-04-21T00:45:04.833Z,11.50
2019-04-21T00:47:39.254Z,11.40
2019-04-21T00:50:10.993Z,11.40
2019-04-21T00:52:58.033Z,11.40
2019-04-21T00:55:35.524Z,11.50
2019-04-21T01:00:32.594Z,11.60
2019-04-21T01:03:09.679Z,11.50
2019-04-21T01:05:47.237Z,11.50
2019-04-21T01:08:16.085Z,11.60
2019-04-21T01:10:35.868Z,11.60
2019-04-21T01:13:21.632Z,11.60
2019-04-21T01:15:50.144Z,11.60
2019-04-21T01:18:20.640Z,11.60
2019-04-21T01:20:31.777Z,11.50
2019-04-21T01:23:02.302Z,11.50
2019-04-21T01:25:39.104Z,11.50
2019-04-21T01:28:27.181Z,11.50
2019-04-21T01:30:57.332Z,11.50
2019-04-21T01:33:34.912Z,11.50
2019-04-21T01:35:58.313Z,11.50
2019-04-21T01:41:08.655Z,11.30
2019-04-21T01:43:34.970Z,11.20
2019-04-21T01:46:10.714Z,11.20
2019-04-21T01:48:34.541Z,11.20
2019-04-21T01:51:08.528Z,11.30
2019-04-21T01:53:59.546Z,11.30
2019-04-21T01:56:35.687Z,11.20
2019-04-21T01:58:55.014Z,11.10
2019-04-21T02:01:42.458Z,11.00
2019-04-21T02:04:06.876Z,10.90
2019-04-21T02:06:41.077Z,10.90
2019-04-21T02:09:10.152Z,10.90
2019-04-21T02:11:50.252Z,10.90
2019-04-21T02:14:22.976Z,10.90
2019-04-21T02:16:54.113Z,10.80
2019-04-21T02:19:28.462Z,10.80
2019-04-21T02:21:51.904Z,10.70
2019-04-21T02:24:39.998Z,10.70
2019-04-21T02:27:01.722Z,10.70
2019-04-21T02:29:34.428Z,10.70
2019-04-21T02:32:14.727Z,10.70
2019-04-21T02:39:57.025Z,10.70
2019-04-21T02:42:22.272Z,10.80
2019-04-21T02:47:36.989Z,10.90
2019-04-21T02:50:19.034Z,10.90
2019-04-21T02:52:37.807Z,10.80
2019-04-21T02:55:07.797Z,10.50
2019-04-21T02:57:41.244Z,10.40
2019-04-21T03:00:29.993Z,10.00
2019-04-21T03:03:09.332Z,9.60
2019-04-21T03:05:58.366Z,9.40
2019-04-21T03:11:01.076Z,9.90
2019-04-21T03:16:23.304Z,9.80
2019-04-21T03:18:45.054Z,9.60
2019-04-21T03:23:49.378Z,8.70
2019-04-21T03:26:33.924Z,8.40
2019-04-21T03:28:52.280Z,8.30
2019-04-21T03:31:45.858Z,8.50
2019-04-21T03:41:31.691Z,8.10
2019-04-21T03:43:58.877Z,7.90
2019-04-21T03:49:12.251Z,7.70
2019-04-21T03:51:42.181Z,7.50
2019-04-21T03:54:09.318Z,7.30
2019-04-21T03:59:09.620Z,7.20
2019-04-21T04:01:50.562Z,7.10
2019-04-21T04:04:37.189Z,7.00
2019-04-21T04:07:37.447Z,6.90
2019-04-21T04:12:38.043Z,7.10
2019-04-21T04:20:11.833Z,6.50
2019-04-21T04:22:49.677Z,6.40
2019-04-21T04:30:27.646Z,6.70
2019-04-21T04:32:46.895Z,7.50
2019-04-21T04:35:36.259Z,8.50
2019-04-21T04:38:13.110Z,9.40
2019-04-21T04:43:11.921Z,10.00
2019-04-21T04:45:38.455Z,10.20
2019-04-21T04:50:49.502Z,10.40
2019-04-21T04:53:25.855Z,10.50
2019-04-21T04:58:23.423Z,10.70
2019-04-21T05:00:56.150Z,10.80
2019-04-21T05:03:37.333Z,10.90
2019-04-21T05:09:03.914Z,11.00
2019-04-21T05:11:41.640Z,11.10
2019-04-21T05:14:06.379Z,11.10
2019-04-21T05:19:10.138Z,11.20
2019-04-21T05:21:34.322Z,11.30
2019-04-21T05:23:56.919Z,11.40
2019-04-21T05:26:21.470Z,11.40
2019-04-21T05:28:55.586Z,11.60
2019-04-21T05:31:56.724Z,11.90
2019-04-21T05:34:44.267Z,12.20
2019-04-21T05:37:14.368Z,12.40
2019-04-21T05:39:48.019Z,12.70
2019-04-21T05:42:25.019Z,12.90
2019-04-21T05:45:25.442Z,13.10
2019-04-21T05:48:06.067Z,13.30
2019-04-21T05:50:30.571Z,13.40
2019-04-21T05:52:53.497Z,13.50
2019-04-21T05:55:56.698Z,13.70
2019-04-21T05:58:07.078Z,13.80
2019-04-21T06:00:59.202Z,13.90
2019-04-21T06:03:19.722Z,14.10
2019-04-21T06:06:08.555Z,14.20
2019-04-21T06:08:20.384Z,14.30
2019-04-21T06:10:53.898Z,14.40
2019-04-21T06:15:56.994Z,14.60
2019-04-21T06:18:40.366Z,14.80
2019-04-21T06:21:05.712Z,14.90
2019-04-21T06:23:35.990Z,14.90
2019-04-21T06:26:18.036Z,15.10
2019-04-21T06:28:40.097Z,15.20
2019-04-21T06:33:45.006Z,15.50
2019-04-21T06:44:01.343Z,16.10
2019-04-21T06:49:03.037Z,16.20
2019-04-21T06:51:30.700Z,16.20
2019-04-21T06:54:09.508Z,16.20
2019-04-21T06:56:48.026Z,16.30
2019-04-21T06:59:09.486Z,16.30
2019-04-21T07:01:51.457Z,16.40
2019-04-21T07:04:37.052Z,16.60
2019-04-21T07:06:53.692Z,16.70
2019-04-21T07:09:29.452Z,16.70
2019-04-21T07:11:54.895Z,16.90
2019-04-21T07:17:06.387Z,17.20
2019-04-21T07:19:35.231Z,17.40
2019-04-21T07:22:06.080Z,17.60
2019-04-21T07:24:41.765Z,17.80
2019-04-21T07:27:08.948Z,18.00
2019-04-21T07:29:39.539Z,18.30
2019-04-21T07:32:09.331Z,18.50
2019-04-21T07:34:47.931Z,18.70
2019-04-21T07:37:12.567Z,18.80
2019-04-21T07:39:45.067Z,19.00
2019-04-21T07:42:13.376Z,19.20
2019-04-21T07:44:46.021Z,19.40
2019-04-21T07:47:28.443Z,19.80
2019-04-21T07:50:00.841Z,20.10
2019-04-21T07:52:55.223Z,20.20
2019-04-21T07:55:18.694Z,20.50
2019-04-21T07:57:36.754Z,21.10
2019-04-21T08:00:21.330Z,21.50
2019-04-21T08:03:00.396Z,21.60
2019-04-21T08:05:20.485Z,21.70
2019-04-21T08:10:16.022Z,21.30
2019-04-21T08:12:57.946Z,21.50
2019-04-21T08:15:26.572Z,21.50
2019-04-21T08:18:04.744Z,21.80
2019-04-21T08:20:32.374Z,22.30
2019-04-21T08:23:04.680Z,22.60
2019-04-21T08:25:46.522Z,22.80
2019-04-21T08:28:17.852Z,23.10
2019-04-21T08:30:43.287Z,23.00
2019-04-21T08:33:27.731Z,23.20
2019-04-21T08:38:22.001Z,22.80
2019-04-21T08:40:57.439Z,23.10
2019-04-21T08:43:38.095Z,23.30
2019-04-21T08:46:01.902Z,23.50
2019-04-21T08:48:29.055Z,23.50
2019-04-21T08:51:18.480Z,23.80
2019-04-21T08:53:34.046Z,23.60
2019-04-21T08:56:16.439Z,23.50
2019-04-21T08:58:56.064Z,23.70
2019-04-21T09:01:32.994Z,24.00
2019-04-21T09:04:07.557Z,24.40
2019-04-21T09:06:54.279Z,25.20
2019-04-21T09:09:12.964Z,25.00
2019-04-21T09:11:40.544Z,24.80
2019-04-21T09:14:13.683Z,24.90
2019-04-21T09:16:41.138Z,25.70
2019-04-21T09:19:24.366Z,26.20
2019-04-21T09:21:52.952Z,25.90
2019-04-21T09:24:22.276Z,25.50
2019-04-21T09:26:51.400Z,25.40
2019-04-21T09:29:21.863Z,25.40
2019-04-21T09:31:46.790Z,25.50
2019-04-21T09:34:27.181Z,25.40
2019-04-21T09:37:10.467Z,25.70
2019-04-21T09:39:29.565Z,26.20
2019-04-21T09:42:02.483Z,26.40
2019-04-21T09:44:38.234Z,26.20
2019-04-21T09:47:05.614Z,25.90
2019-04-21T09:49:37.633Z,25.90
2019-04-21T09:52:13.771Z,26.20
2019-04-21T09:54:48.236Z,26.00
2019-04-21T09:57:24.372Z,25.50
2019-04-21T09:59:49.127Z,25.90
2019-04-21T10:02:21.297Z,26.70
2019-04-21T10:04:46.627Z,27.40
2019-04-21T10:07:27.083Z,27.60
2019-04-21T10:09:50.091Z,28.00
2019-04-21T10:12:21.042Z,28.00
2019-04-21T10:14:51.812Z,28.60
2019-04-21T10:17:23.948Z,28.60
2019-04-21T10:19:55.213Z,29.40
2019-04-21T10:22:26.719Z,30.40
2019-04-21T10:24:58.407Z,30.70
2019-04-21T10:27:29.438Z,31.50
2019-04-21T10:30:01.666Z,31.20
2019-04-21T10:32:34.379Z,31.00
2019-04-21T10:35:08.509Z,29.70
2019-04-21T10:37:50.872Z,29.80
2019-04-21T10:40:13.745Z,30.30
2019-04-21T10:42:45.979Z,31.70
2019-04-21T10:45:18.996Z,31.20
2019-04-21T10:47:50.286Z,31.50
2019-04-21T10:50:22.507Z,31.90
2019-04-21T10:53:00.865Z,32.30
2019-04-21T10:55:50.316Z,32.20
2019-04-21T10:58:08.775Z,30.80
2019-04-21T11:00:42.276Z,30.40
2019-04-21T11:03:33.221Z,31.70
2019-04-21T11:06:08.505Z,29.80
2019-04-21T11:08:43.994Z,29.40
2019-04-21T11:11:12.103Z,28.90
2019-04-21T11:13:42.429Z,29.70
2019-04-21T11:16:13.095Z,29.00
2019-04-21T11:18:46.222Z,29.30
2019-04-21T11:21:16.705Z,31.20
2019-04-21T11:23:50.046Z,31.70
2019-04-21T11:26:20.142Z,31.40
2019-04-21T11:28:52.462Z,31.50
2019-04-21T11:31:22.970Z,30.40
2019-04-21T11:33:55.273Z,29.50
2019-04-21T11:36:27.006Z,30.00
2019-04-21T11:39:14.895Z,31.10
2019-04-21T11:41:31.829Z,31.20
2019-04-21T11:44:04.713Z,31.70
2019-04-21T11:46:38.278Z,30.60
2019-04-21T11:49:08.483Z,31.10
2019-04-21T11:51:38.569Z,32.20
2019-04-21T11:54:08.896Z,32.70
2019-04-21T11:56:39.071Z,31.50
2019-04-21T11:59:09.973Z,30.30
2019-04-21T12:01:41.327Z,30.00
2019-04-21T12:04:11.753Z,30.70
2019-04-21T12:06:46.542Z,30.50
2019-04-21T12:09:14.685Z,31.60
2019-04-21T12:11:45.857Z,30.80
2019-04-21T12:14:16.268Z,30.20
2019-04-21T12:16:46.771Z,30.30
2019-04-21T12:19:16.963Z,30.80
2019-04-21T12:21:58.861Z,32.00
2019-04-21T12:24:19.449Z,31.80
2019-04-21T12:26:49.844Z,30.90
2019-04-21T12:29:20.844Z,32.10
2019-04-21T12:32:01.444Z,31.50
2019-04-21T12:34:32.518Z,32.10
2019-04-21T12:37:02.600Z,33.50
2019-04-21T12:39:32.921Z,35.40
2019-04-21T12:42:04.734Z,36.60
2019-04-21T12:44:35.177Z,35.30
2019-04-21T12:47:05.833Z,34.30
2019-04-21T12:49:35.957Z,34.40
2019-04-21T12:52:09.256Z,33.30
2019-04-21T12:54:42.056Z,32.20
2019-04-21T12:57:12.106Z,31.70
2019-04-21T12:59:44.675Z,31.10
2019-04-21T13:02:16.171Z,30.60
2019-04-21T13:04:46.249Z,30.70
2019-04-21T13:07:17.388Z,30.90
2019-04-21T13:09:48.434Z,30.00
2019-04-21T13:12:19.410Z,30.30
2019-04-21T13:14:49.631Z,30.30
2019-04-21T13:17:21.474Z,30.20
2019-04-21T13:19:51.574Z,30.00
2019-04-21T13:22:21.742Z,30.30
2019-04-21T13:24:51.806Z,31.40
2019-04-21T13:27:22.793Z,33.20
2019-04-21T13:29:54.553Z,33.40
2019-04-21T13:32:24.966Z,32.10
2019-04-21T13:34:57.050Z,30.60
2019-04-21T13:37:27.759Z,30.80
2019-04-21T13:40:23.682Z,31.00
2019-04-21T13:42:40.738Z,30.70
2019-04-21T13:45:10.088Z,30.50
2019-04-21T13:47:41.253Z,30.70
2019-04-21T13:50:15.155Z,31.40
2019-04-21T13:52:46.825Z,32.40
2019-04-21T13:55:17.021Z,33.30
2019-04-21T13:57:48.236Z,33.80
2019-04-21T14:00:22.178Z,32.10
2019-04-21T14:02:52.638Z,32.40
2019-04-21T14:05:22.746Z,33.20
2019-04-21T14:07:54.344Z,32.30
2019-04-21T14:10:25.869Z,31.50
2019-04-21T14:12:58.339Z,30.90
2019-04-21T14:15:28.590Z,32.60
2019-04-21T14:17:58.670Z,32.40
2019-04-21T14:20:31.103Z,32.00
2019-04-21T14:23:13.261Z,32.70
2019-04-21T14:25:33.902Z,32.20
2019-04-21T14:28:04.106Z,30.70
2019-04-21T14:30:34.659Z,29.10
2019-04-21T14:33:04.788Z,28.90
2019-04-21T14:35:34.922Z,29.40
2019-04-21T14:38:04.944Z,30.30
2019-04-21T14:40:36.709Z,30.70
2019-04-21T14:43:08.034Z,30.70
2019-04-21T14:45:40.789Z,30.30
2019-04-21T14:48:30.187Z,30.30
2019-04-21T14:51:06.529Z,30.80
2019-04-21T14:53:47.818Z,30.90
2019-04-21T14:56:21.543Z,31.20
2019-04-21T14:58:55.307Z,32.00
2019-04-21T15:01:23.995Z,31.60
2019-04-21T15:03:55.517Z,30.10
2019-04-21T15:06:25.678Z,29.90
2019-04-21T15:08:57.536Z,29.90
2019-04-21T15:11:27.598Z,29.30
2019-04-21T15:13:57.907Z,29.60
2019-04-21T15:16:29.112Z,29.50
2019-04-21T15:18:59.177Z,30.40
2019-04-21T15:21:29.275Z,29.50
2019-04-21T15:24:00.434Z,29.00
2019-04-21T15:26:32.403Z,29.30
2019-04-21T15:29:02.758Z,28.70
2019-04-21T15:31:38.267Z,28.80
2019-04-21T15:34:07.474Z,28.00
2019-04-21T15:36:37.857Z,28.10
2019-04-21T15:39:10.143Z,28.30
2019-04-21T15:41:40.807Z,28.30
2019-04-21T15:44:12.498Z,28.60
2019-04-21T15:46:43.962Z,28.80
2019-04-21T15:49:15.393Z,28.60
2019-04-21T15:51:46.386Z,28.00
2019-04-21T15:54:18.525Z,27.20
2019-04-21T15:56:56.543Z,26.60
2019-04-21T15:59:37.739Z,26.30
2019-04-21T16:02:26.418Z,26.40
2019-04-21T16:04:56.835Z,26.20
2019-04-21T16:07:27.809Z,26.00
2019-04-21T16:09:57.886Z,25.60
2019-04-21T16:12:27.967Z,25.10
2019-04-21T16:14:58.994Z,24.90
2019-04-21T16:17:29.612Z,25.00
2019-04-21T16:20:02.035Z,24.90
2019-04-21T16:22:34.465Z,25.10
2019-04-21T16:25:08.665Z,25.30
2019-04-21T16:27:39.765Z,25.30
2019-04-21T16:30:12.183Z,25.50
2019-04-21T16:32:42.262Z,25.80
2019-04-21T16:35:14.580Z,25.60
2019-04-21T16:37:45.719Z,25.20
2019-04-21T16:40:17.196Z,25.10
2019-04-21T16:42:48.343Z,24.80
2019-04-21T16:45:19.425Z,24.90
2019-04-21T16:47:52.125Z,25.20
2019-04-21T16:50:23.451Z,25.20
2019-04-21T16:52:59.598Z,24.90
2019-04-21T16:55:49.170Z,24.70
2019-04-21T16:58:28.943Z,24.10
2019-04-21T17:01:08.269Z,24.00
2019-04-21T17:03:34.742Z,24.10
2019-04-21T17:06:07.117Z,24.00
2019-04-21T17:08:38.731Z,24.00
2019-04-21T17:11:17.333Z,23.70
2019-04-21T17:13:42.618Z,23.20
2019-04-21T17:16:43.386Z,23.20
2019-04-21T17:18:57.424Z,23.00
2019-04-21T17:21:17.255Z,22.90
2019-04-21T17:23:48.464Z,22.80
2019-04-21T17:26:19.332Z,22.70
2019-04-21T17:28:50.730Z,22.60
2019-04-21T17:31:22.067Z,22.40
2019-04-21T17:34:02.231Z,22.20
2019-04-21T17:36:25.369Z,21.90
2019-04-21T17:38:55.728Z,21.60
2019-04-21T17:41:35.445Z,21.40
2019-04-21T17:44:00.254Z,21.20
2019-04-21T17:46:42.126Z,20.90
2019-04-21T17:49:03.382Z,20.70
2019-04-21T17:51:46.657Z,20.40
2019-04-21T17:54:23.614Z,20.20
2019-04-21T17:57:10.938Z,19.80
2019-04-21T17:59:51.197Z,19.50
2019-04-21T18:02:11.026Z,19.20
2019-04-21T18:04:50.942Z,18.90
2019-04-21T18:07:26.161Z,18.60
2019-04-21T18:12:33.672Z,17.90
2019-04-21T18:15:00.232Z,17.70
2019-04-21T18:17:22.747Z,17.40
2019-04-21T18:19:54.838Z,17.20
2019-04-21T18:22:34.162Z,17.00
2019-04-21T18:25:06.952Z,16.70
2019-04-21T18:27:34.542Z,16.50
2019-04-21T18:30:28.161Z,16.40
2019-04-21T18:33:05.919Z,16.30
2019-04-21T18:35:38.985Z,16.10
2019-04-21T18:38:16.897Z,16.00
2019-04-21T18:40:45.553Z,15.90
2019-04-21T18:43:53.269Z,15.70
2019-04-21T18:46:31.437Z,15.70
2019-04-21T18:48:59.022Z,15.60
2019-04-21T18:51:56.485Z,15.50
2019-04-21T18:54:36.019Z,15.40
2019-04-21T18:57:00.967Z,15.30
2019-04-21T18:59:29.778Z,15.20
2019-04-21T19:02:02.465Z,15.20
2019-04-21T19:04:32.416Z,15.10
2019-04-21T19:07:12.728Z,15.00
2019-04-21T19:10:12.650Z,15.00
2019-04-21T19:12:26.414Z,15.00
2019-04-21T19:14:56.305Z,14.90
2019-04-21T19:18:05.051Z,14.80
2019-04-21T19:20:08.934Z,14.80
2019-04-21T19:22:34.192Z,14.80
2019-04-21T19:25:08.374Z,14.80
2019-04-21T19:27:36.462Z,14.90
2019-04-21T19:32:41.316Z,15.00
2019-04-21T19:34:59.485Z,14.90
2019-04-21T19:37:38.310Z,14.90
2019-04-21T19:40:10.595Z,14.90
2019-04-21T19:42:45.587Z,14.90
2019-04-21T19:45:22.189Z,14.90
2019-04-21T19:48:01.061Z,14.90
2019-04-21T19:50:36.515Z,14.90
2019-04-21T19:52:56.871Z,14.90
2019-04-21T19:55:18.363Z,14.90
2019-04-21T19:57:49.256Z,14.80
2019-04-21T20:00:19.545Z,14.80
2019-04-21T20:02:50.431Z,14.70
2019-04-21T20:05:30.307Z,14.70
2019-04-21T20:08:08.365Z,14.80
2019-04-21T20:10:44.604Z,14.70
2019-04-21T20:13:25.928Z,14.70
2019-04-21T20:15:44.833Z,14.70
2019-04-21T20:18:11.345Z,14.70
2019-04-21T20:20:31.549Z,14.60
2019-04-21T20:23:03.045Z,14.60
2019-04-21T20:25:41.832Z,14.50
2019-04-21T20:28:15.607Z,14.50
2019-04-21T20:30:59.579Z,14.40
2019-04-21T20:36:11.905Z,14.40
2019-04-21T20:38:34.089Z,14.30
2019-04-21T20:41:03.030Z,14.30
2019-04-21T20:43:42.706Z,14.40
2019-04-21T20:46:12.350Z,14.40
2019-04-21T20:48:42.117Z,14.30
2019-04-21T20:51:18.084Z,14.30
2019-04-21T20:53:50.899Z,14.20
2019-04-21T20:56:16.007Z,14.20
2019-04-21T20:58:55.842Z,14.20
2019-04-21T21:01:34.796Z,14.20
2019-04-21T21:04:07.432Z,14.10
2019-04-21T21:06:38.825Z,14.00
2019-04-21T21:09:09.910Z,13.90
2019-04-21T21:11:54.038Z,13.80
2019-04-21T21:14:20.402Z,13.70
2019-04-21T21:16:53.595Z,13.60
2019-04-21T21:19:43.951Z,13.70
2019-04-21T21:21:49.964Z,13.70
2019-04-21T21:24:31.086Z,13.70
2019-04-21T21:26:58.061Z,13.70
2019-04-21T21:29:31.255Z,13.70
2019-04-21T21:32:15.190Z,13.70
2019-04-21T21:34:38.838Z,13.70
2019-04-21T21:37:12.925Z,13.70
2019-04-21T21:39:46.296Z,13.80
2019-04-21T21:41:57.634Z,13.80
2019-04-21T21:44:26.214Z,13.70
2019-04-21T21:47:06.495Z,13.60
2019-04-21T21:49:45.327Z,13.60
2019-04-21T21:52:11.508Z,13.50
2019-04-21T21:54:31.921Z,13.50
2019-04-21T21:57:02.655Z,13.40
2019-04-21T21:59:36.797Z,13.30
2019-04-21T22:02:05.271Z,13.30
2019-04-21T22:04:37.276Z,13.30
2019-04-21T22:07:12.370Z,13.30
2019-04-21T22:09:40.184Z,13.30
2019-04-21T22:12:12.094Z,13.20
2019-04-21T22:14:46.903Z,13.10
2019-04-21T22:17:31.690Z,13.10
2019-04-21T22:20:12.252Z,13.10
2019-04-21T22:22:32.789Z,13.10
2019-04-21T22:24:59.057Z,13.00
2019-04-21T22:27:21.383Z,13.00
2019-04-21T22:29:57.146Z,13.00
2019-04-21T22:32:27.471Z,13.10
2019-04-21T22:35:01.649Z,13.10
2019-04-21T22:37:41.558Z,13.10
2019-04-21T22:40:13.782Z,13.10
2019-04-21T22:42:40.150Z,13.00
2019-04-21T22:45:05.205Z,13.00
2019-04-21T22:47:39.272Z,12.90
2019-04-21T22:50:08.569Z,13.00
2019-04-21T22:52:39.367Z,13.00
2019-04-21T22:55:19.245Z,13.00
2019-04-21T22:57:47.825Z,13.00
2019-04-21T23:00:18.704Z,13.00
2019-04-21T23:02:54.518Z,13.00
2019-04-21T23:05:28.156Z,13.00
2019-04-21T23:08:01.392Z,13.00
2019-04-21T23:10:29.503Z,12.90
2019-04-21T23:13:05.696Z,12.80
2019-04-21T23:15:41.796Z,12.80
2019-04-21T23:18:24.976Z,12.70
2019-04-21T23:20:53.619Z,12.70
2019-04-21T23:23:28.403Z,12.60
2019-04-21T23:25:55.961Z,12.60
2019-04-21T23:28:38.572Z,12.50
2019-04-21T23:31:09.822Z,12.40
2019-04-21T23:33:20.170Z,12.40
2019-04-21T23:35:49.542Z,12.40
2019-04-21T23:38:27.850Z,12.30
2019-04-21T23:40:56.306Z,12.30
2019-04-21T23:43:29.153Z,12.40
2019-04-21T23:45:57.260Z,12.40
2019-04-21T23:48:39.059Z,12.30
2019-04-21T23:51:13.888Z,12.30
2019-04-21T23:53:33.284Z,12.30
2019-04-21T23:56:03.533Z,12.20
2019-04-21T23:58:36.260Z,12.20
